createdAt,value
2023-03-17T00:00:18.199Z,97821.47
2023-03-17T00:02:48.579Z,97821.47
2023-03-17T00:05:19.197Z,97825.03
2023-03-17T00:07:47.484Z,97818.78
2023-03-17T00:10:17.959Z,97817.94
2023-03-17T00:12:46.663Z,97813.50
2023-03-17T00:15:15.970Z,97812.63
2023-03-17T00:17:44.208Z,97813.50
2023-03-17T00:20:20.710Z,97813.59
2023-03-17T00:22:49.097Z,97810.91
2023-03-17T00:25:23.346Z,97815.41
2023-03-17T00:27:52.087Z,97813.59
2023-03-17T00:30:21.344Z,97808.22
2023-03-17T00:32:50.851Z,97810.03
2023-03-17T00:35:24.804Z,97802.94
2023-03-17T00:37:55.544Z,97801.09
2023-03-17T00:40:25.978Z,97794.88
2023-03-17T00:42:55.221Z,97798.53
2023-03-17T00:45:23.565Z,97787.78
2023-03-17T00:47:52.967Z,97785.09
2023-03-17T00:50:23.547Z,97784.22
2023-03-17T00:52:53.450Z,97784.22
2023-03-17T00:55:21.712Z,97779.72
2023-03-17T00:57:50.641Z,97772.63
2023-03-17T01:00:21.416Z,97772.69
2023-03-17T01:02:51.558Z,97772.69
2023-03-17T01:05:21.329Z,97769.94
2023-03-17T01:07:53.398Z,97762.81
2023-03-17T01:10:23.906Z,97765.59
2023-03-17T01:12:52.325Z,97755.72
2023-03-17T01:15:21.736Z,97754.84
2023-03-17T01:17:50.673Z,97759.34
2023-03-17T01:20:20.314Z,97753.09
2023-03-17T01:22:50.576Z,97751.28
2023-03-17T01:25:19.102Z,97754.94
2023-03-17T01:27:47.803Z,97752.25
2023-03-17T01:30:24.280Z,97746.00
2023-03-17T01:32:52.457Z,97738.84
2023-03-17T01:35:20.721Z,97735.28
2023-03-17T01:37:50.602Z,97739.78
2023-03-17T01:40:20.178Z,97738.91
2023-03-17T01:42:50.834Z,97738.06
2023-03-17T01:45:56.086Z,97738.91
2023-03-17T01:48:24.928Z,97742.56
2023-03-17T01:50:53.374Z,97739.00
2023-03-17T01:53:22.892Z,97739.00
2023-03-17T01:55:50.983Z,97737.19
2023-03-17T01:58:19.557Z,97729.22
2023-03-17T02:00:48.447Z,97738.13
2023-03-17T02:03:16.598Z,97727.38
2023-03-17T02:05:44.746Z,97728.34
2023-03-17T02:08:13.294Z,97729.22
2023-03-17T02:10:43.479Z,97714.91
2023-03-17T02:13:14.537Z,97717.59
2023-03-17T02:15:48.468Z,97705.97
2023-03-17T02:18:17.731Z,97702.41
2023-03-17T02:21:28.760Z,97703.41
2023-03-17T02:23:56.933Z,97701.59
2023-03-17T02:26:26.065Z,97698.91
2023-03-17T02:28:54.455Z,97705.09
2023-03-17T02:31:22.696Z,97697.06
2023-03-17T02:33:53.697Z,97703.41
2023-03-17T02:36:22.718Z,97700.72
2023-03-17T02:38:52.874Z,97696.28
2023-03-17T02:41:21.035Z,97701.66
2023-03-17T02:43:49.207Z,97702.53
2023-03-17T02:46:17.498Z,97702.63
2023-03-17T02:48:46.185Z,97698.13
2023-03-17T02:51:14.396Z,97697.25
2023-03-17T02:53:42.522Z,97699.94
2023-03-17T02:56:12.024Z,97698.13
2023-03-17T02:58:40.114Z,97694.56
2023-03-17T03:01:09.730Z,97686.50
2023-03-17T03:03:38.661Z,97691.88
2023-03-17T03:06:07.198Z,97691.00
2023-03-17T03:08:35.824Z,97691.97
2023-03-17T03:11:05.058Z,97694.66
2023-03-17T03:13:34.570Z,97696.47
2023-03-17T03:16:02.761Z,97691.97
2023-03-17T03:18:30.941Z,97695.50
2023-03-17T03:20:59.017Z,97691.09
2023-03-17T03:23:27.557Z,97691.09
2023-03-17T03:25:55.824Z,97681.31
2023-03-17T03:28:23.947Z,97691.09
2023-03-17T03:30:53.423Z,97684.84
2023-03-17T03:33:21.715Z,97690.22
2023-03-17T03:35:49.807Z,97685.72
2023-03-17T03:38:17.961Z,97680.47
2023-03-17T03:40:46.154Z,97687.53
2023-03-17T03:43:22.781Z,97687.66
2023-03-17T03:45:54.558Z,97687.53
2023-03-17T03:48:22.896Z,97683.16
2023-03-17T03:50:51.001Z,97683.16
2023-03-17T03:53:19.137Z,97678.72
2023-03-17T03:55:47.481Z,97677.81
2023-03-17T03:58:15.522Z,97688.56
2023-03-17T04:00:43.706Z,97685.88
2023-03-17T04:03:13.460Z,97684.09
2023-03-17T04:05:42.003Z,97685.88
2023-03-17T04:08:11.169Z,97672.44
2023-03-17T04:10:39.322Z,97676.03
2023-03-17T04:13:08.569Z,97678.78
2023-03-17T04:15:36.707Z,97670.81
2023-03-17T04:18:05.367Z,97671.66
2023-03-17T04:20:34.880Z,97668.97
2023-03-17T04:23:03.039Z,97671.66
2023-03-17T04:25:31.560Z,97672.53
2023-03-17T04:27:59.612Z,97673.50
2023-03-17T04:30:27.825Z,97674.34
2023-03-17T04:32:55.976Z,97675.31
2023-03-17T04:35:24.231Z,97676.19
2023-03-17T04:37:53.711Z,97676.19
2023-03-17T04:40:21.854Z,97680.69
2023-03-17T04:42:50.022Z,97688.75
2023-03-17T04:45:18.232Z,97678.88
2023-03-17T04:47:46.482Z,97678.94
2023-03-17T04:50:15.088Z,97677.13
2023-03-17T04:52:43.258Z,97683.38
2023-03-17T04:55:13.118Z,97681.63
2023-03-17T04:57:41.602Z,97678.94
2023-03-17T05:00:12.616Z,97687.00
2023-03-17T05:02:41.239Z,97687.97
2023-03-17T05:05:09.977Z,97683.53
2023-03-17T05:07:38.170Z,97679.25
2023-03-17T05:10:07.006Z,97689.03
2023-03-17T05:12:36.536Z,97684.53
2023-03-17T05:15:05.514Z,97680.97
2023-03-17T05:17:33.668Z,97685.47
2023-03-17T05:20:01.720Z,97694.50
2023-03-17T05:22:29.823Z,97692.69
2023-03-17T05:24:57.908Z,97691.81
2023-03-17T05:27:26.338Z,97698.06
2023-03-17T05:29:55.802Z,97705.13
2023-03-17T05:32:24.056Z,97707.72
2023-03-17T05:34:52.162Z,97707.72
2023-03-17T05:37:20.300Z,97702.28
2023-03-17T05:39:48.429Z,97702.34
2023-03-17T05:42:16.548Z,97710.34
2023-03-17T05:44:44.623Z,97713.88
2023-03-17T05:47:14.169Z,97714.75
2023-03-17T05:49:42.243Z,97718.19
2023-03-17T05:52:10.423Z,97720.88
2023-03-17T05:54:38.725Z,97725.31
2023-03-17T05:57:07.768Z,97719.94
2023-03-17T05:59:36.317Z,97721.69
2023-03-17T06:02:04.485Z,97726.13
2023-03-17T06:04:34.094Z,97729.66
2023-03-17T06:07:02.194Z,97732.34
2023-03-17T06:09:30.429Z,97720.75
2023-03-17T06:11:58.819Z,97727.75
2023-03-17T06:14:27.256Z,97725.06
2023-03-17T06:16:55.572Z,97725.06
2023-03-17T06:19:24.123Z,97725.00
2023-03-17T06:21:54.078Z,97729.50
2023-03-17T06:24:22.657Z,97725.00
2023-03-17T06:26:52.051Z,97723.13
2023-03-17T06:29:20.932Z,97717.78
2023-03-17T06:31:50.900Z,97715.09
2023-03-17T06:34:19.019Z,97706.09
2023-03-17T06:36:47.125Z,97708.78
2023-03-17T06:39:18.149Z,97705.22
2023-03-17T06:41:46.376Z,97699.72
2023-03-17T06:44:15.163Z,97701.59
2023-03-17T06:46:43.415Z,97695.25
2023-03-17T06:49:13.528Z,97696.09
2023-03-17T06:51:41.785Z,97708.56
2023-03-17T06:54:09.917Z,97704.94
2023-03-17T06:56:39.440Z,97709.44
2023-03-17T06:59:07.556Z,97710.31
2023-03-17T07:01:35.741Z,97703.19
2023-03-17T07:04:03.829Z,97706.66
2023-03-17T07:06:31.945Z,97697.75
2023-03-17T07:09:02.154Z,97702.16
2023-03-17T07:11:30.824Z,97705.72
2023-03-17T07:14:00.568Z,97699.47
2023-03-17T07:16:28.985Z,97703.91
2023-03-17T07:18:57.097Z,97709.28
2023-03-17T07:21:25.257Z,97708.41
2023-03-17T07:23:53.656Z,97707.44
2023-03-17T07:26:21.778Z,97710.13
2023-03-17T07:28:49.838Z,97704.75
2023-03-17T07:31:19.768Z,97710.13
2023-03-17T07:33:48.130Z,97704.75
2023-03-17T07:36:16.671Z,97716.38
2023-03-17T07:38:45.024Z,97705.63
2023-03-17T07:41:13.880Z,97713.66
2023-03-17T07:43:42.014Z,97708.31
2023-03-17T07:46:10.171Z,97702.94
2023-03-17T07:48:42.253Z,97696.69
2023-03-17T07:51:13.515Z,97691.31
2023-03-17T07:53:41.819Z,97700.25
2023-03-17T07:56:09.991Z,97696.63
2023-03-17T07:58:38.151Z,97690.38
2023-03-17T08:01:06.931Z,97695.75
2023-03-17T08:03:35.159Z,97699.31
2023-03-17T08:06:06.240Z,97692.06
2023-03-17T08:08:34.463Z,97686.72
2023-03-17T08:11:03.659Z,97686.72
2023-03-17T08:13:31.896Z,97681.34
2023-03-17T08:16:00.040Z,97675.97
2023-03-17T08:18:28.222Z,97664.38
2023-03-17T08:20:56.414Z,97661.69
2023-03-17T08:23:26.638Z,97658.91
2023-03-17T08:25:58.062Z,97664.28
2023-03-17T08:28:26.276Z,97658.91
2023-03-17T08:30:54.562Z,97657.91
2023-03-17T08:33:22.768Z,97656.22
2023-03-17T08:35:51.632Z,97652.66
2023-03-17T08:38:19.765Z,97645.47
2023-03-17T08:40:50.646Z,97639.22
2023-03-17T08:43:18.836Z,97633.84
2023-03-17T08:45:47.014Z,97634.72
2023-03-17T08:48:15.412Z,97633.84
2023-03-17T08:50:43.595Z,97640.09
2023-03-17T08:53:11.966Z,97638.28
2023-03-17T08:55:40.066Z,97637.41
2023-03-17T08:58:09.587Z,97634.81
2023-03-17T09:00:37.709Z,97639.22
2023-03-17T09:03:05.912Z,97640.09
2023-03-17T09:05:36.906Z,97643.72
2023-03-17T09:08:06.400Z,97638.34
2023-03-17T09:10:34.539Z,97649.09
2023-03-17T09:13:02.952Z,97646.41
2023-03-17T09:15:33.821Z,97647.28
2023-03-17T09:18:02.109Z,97646.41
2023-03-17T09:20:30.531Z,97640.09
2023-03-17T09:22:58.688Z,97635.66
2023-03-17T09:25:27.396Z,97638.34
2023-03-17T09:27:55.761Z,97617.94
2023-03-17T09:30:24.069Z,97628.56
2023-03-17T09:32:53.893Z,97627.59
2023-03-17T09:35:22.395Z,97622.22
2023-03-17T09:37:50.773Z,97621.38
2023-03-17T09:40:19.610Z,97622.22
2023-03-17T09:43:00.750Z,97616.84
2023-03-17T09:45:33.536Z,97616.00
2023-03-17T09:48:32.570Z,97615.13
2023-03-17T09:51:03.089Z,97605.25
2023-03-17T09:53:34.312Z,97610.63
2023-03-17T09:56:04.200Z,97594.59
2023-03-17T09:58:32.954Z,97593.63
2023-03-17T10:01:01.312Z,97594.50
2023-03-17T10:03:29.469Z,97593.63
2023-03-17T10:06:16.675Z,97581.91
2023-03-17T10:08:48.092Z,97589.13
2023-03-17T10:11:18.959Z,97586.44
2023-03-17T10:13:52.732Z,97595.34
2023-03-17T10:16:22.130Z,97590.09
2023-03-17T10:18:53.208Z,97585.59
2023-03-17T10:21:24.332Z,97588.28
2023-03-17T10:23:52.548Z,97590.94
2023-03-17T10:26:27.393Z,97589.13
2023-03-17T10:28:55.954Z,97595.34
2023-03-17T10:31:29.253Z,97586.44
2023-03-17T10:33:58.488Z,97587.28
2023-03-17T10:36:47.102Z,97583.75
2023-03-17T10:39:16.239Z,97584.53
2023-03-17T10:41:52.958Z,97581.75
2023-03-17T10:44:30.822Z,97574.63
2023-03-17T10:46:59.403Z,97576.25
2023-03-17T10:49:27.760Z,97569.19
2023-03-17T10:51:57.384Z,97572.72
2023-03-17T10:54:26.581Z,97577.25
2023-03-17T10:57:00.139Z,97581.63
2023-03-17T11:02:06.849Z,97574.44
2023-03-17T11:04:36.402Z,97569.94
2023-03-17T11:07:10.883Z,97569.84
2023-03-17T11:09:39.079Z,97562.66
2023-03-17T11:12:09.249Z,97561.78
2023-03-17T11:14:37.436Z,97559.09
2023-03-17T11:17:14.098Z,97551.91
2023-03-17T11:19:44.698Z,97548.25
2023-03-17T11:22:16.206Z,97544.69
2023-03-17T11:24:49.560Z,97547.31
2023-03-17T11:27:21.689Z,97549.97
2023-03-17T11:29:58.332Z,97545.44
2023-03-17T11:32:28.827Z,97538.38
2023-03-17T11:35:35.829Z,97529.31
2023-03-17T11:38:15.955Z,97523.94
2023-03-17T11:40:52.164Z,97521.25
2023-03-17T11:43:25.029Z,97521.25
2023-03-17T11:45:53.997Z,97518.50
2023-03-17T11:48:30.159Z,97503.31
2023-03-17T11:51:01.295Z,97499.59
2023-03-17T11:53:50.523Z,97502.16
2023-03-17T11:56:19.902Z,97500.34
2023-03-17T11:58:49.582Z,97487.78
2023-03-17T12:01:19.426Z,97490.38
2023-03-17T12:03:49.300Z,97482.31
2023-03-17T12:06:20.681Z,97475.94
2023-03-17T12:08:53.627Z,97470.50
2023-03-17T12:11:23.725Z,97465.03
2023-03-17T12:13:54.151Z,97454.25
2023-03-17T12:16:25.711Z,97462.22
2023-03-17T12:18:58.043Z,97460.41
2023-03-17T12:21:30.990Z,97441.47
2023-03-17T12:24:01.942Z,97450.41
2023-03-17T12:26:34.678Z,97449.44
2023-03-17T12:29:05.823Z,97449.38
2023-03-17T12:31:35.593Z,97437.63
2023-03-17T12:34:06.531Z,97440.31
2023-03-17T12:36:36.760Z,97441.19
2023-03-17T12:39:09.390Z,97437.63
2023-03-17T12:41:49.065Z,97431.31
2023-03-17T12:44:24.261Z,97438.41
2023-03-17T12:47:36.840Z,97428.63
2023-03-17T12:50:14.324Z,97428.50
2023-03-17T12:53:02.896Z,97416.88
2023-03-17T12:55:33.223Z,97422.25
2023-03-17T12:58:03.449Z,97414.09
2023-03-17T13:00:32.328Z,97410.56
2023-03-17T13:03:14.732Z,97407.94
2023-03-17T13:05:46.575Z,97408.72
2023-03-17T13:08:16.001Z,97403.34
2023-03-17T13:10:48.118Z,97398.94
2023-03-17T13:13:37.767Z,97398.84
2023-03-17T13:16:06.884Z,97395.19
2023-03-17T13:18:53.442Z,97389.81
2023-03-17T13:21:26.390Z,97394.31
2023-03-17T13:23:59.515Z,97393.25
2023-03-17T13:26:58.209Z,97384.34
2023-03-17T13:29:47.362Z,97382.59
2023-03-17T13:32:39.595Z,97377.22
2023-03-17T13:35:21.352Z,97374.84
2023-03-17T13:38:11.397Z,97375.91
2023-03-17T13:40:44.097Z,97374.19
2023-03-17T13:43:31.037Z,97369.69
2023-03-17T13:46:20.041Z,97366.88
2023-03-17T13:48:48.222Z,97370.44
2023-03-17T13:51:20.689Z,97365.94
2023-03-17T13:53:51.059Z,97358.72
2023-03-17T13:56:20.028Z,97346.13
2023-03-17T13:58:59.747Z,97348.75
2023-03-17T14:01:27.969Z,97345.19
2023-03-17T14:03:56.614Z,97350.56
2023-03-17T14:06:28.121Z,97342.50
2023-03-17T14:08:57.985Z,97338.81
2023-03-17T14:11:29.242Z,97335.19
2023-03-17T14:14:10.723Z,97331.63
2023-03-17T14:16:44.738Z,97329.81
2023-03-17T14:19:18.737Z,97330.69
2023-03-17T14:21:46.866Z,97325.31
2023-03-17T14:24:23.534Z,97325.31
2023-03-17T14:26:51.820Z,97322.63
2023-03-17T14:29:23.280Z,97318.31
2023-03-17T14:31:53.991Z,97317.53
2023-03-17T14:34:22.467Z,97309.78
2023-03-17T14:36:51.967Z,97304.63
2023-03-17T14:39:23.945Z,97303.88
2023-03-17T14:41:59.482Z,97303.13
2023-03-17T14:44:29.233Z,97295.25
2023-03-17T14:47:03.928Z,97295.34
2023-03-17T14:49:33.542Z,97292.78
2023-03-17T14:52:01.822Z,97285.78
2023-03-17T14:54:31.925Z,97282.34
2023-03-17T14:57:03.364Z,97288.88
2023-03-17T14:59:34.972Z,97288.41
2023-03-17T15:02:03.965Z,97287.00
2023-03-17T15:04:32.812Z,97281.94
2023-03-17T15:07:01.640Z,97272.44
2023-03-17T15:09:31.765Z,97277.16
2023-03-17T15:12:02.827Z,97264.97
2023-03-17T15:14:33.858Z,97269.69
2023-03-17T15:17:03.385Z,97266.25
2023-03-17T15:19:36.309Z,97268.28
2023-03-17T15:22:06.325Z,97264.84
2023-03-17T15:24:41.431Z,97262.34
2023-03-17T15:27:18.810Z,97255.38
2023-03-17T15:29:48.460Z,97254.50
2023-03-17T15:32:19.354Z,97249.91
2023-03-17T15:34:47.592Z,97252.34
2023-03-17T15:37:19.284Z,97259.34
2023-03-17T15:39:47.776Z,97245.81
2023-03-17T15:42:16.389Z,97240.38
2023-03-17T15:44:44.515Z,97240.38
2023-03-17T15:47:15.306Z,97245.63
2023-03-17T15:49:43.625Z,97242.72
2023-03-17T15:52:16.385Z,97247.03
2023-03-17T15:54:44.560Z,97241.50
2023-03-17T15:57:13.338Z,97240.41
2023-03-17T15:59:41.574Z,97242.13
2023-03-17T16:02:24.848Z,97235.72
2023-03-17T16:04:53.072Z,97232.91
2023-03-17T16:07:21.348Z,97227.47
2023-03-17T16:09:49.470Z,97226.50
2023-03-17T16:12:17.725Z,97229.09
2023-03-17T16:14:45.890Z,97230.78
2023-03-17T16:17:18.179Z,97224.34
2023-03-17T16:19:47.967Z,97231.47
2023-03-17T16:22:39.411Z,97232.22
2023-03-17T16:25:18.684Z,97232.97
2023-03-17T16:27:47.030Z,97231.25
2023-03-17T16:30:17.640Z,97230.31
2023-03-17T16:32:46.045Z,97221.25
2023-03-17T16:35:19.354Z,97225.75
2023-03-17T16:37:47.666Z,97228.44
2023-03-17T16:40:20.520Z,97230.19
2023-03-17T16:42:48.746Z,97220.31
2023-03-17T16:45:22.748Z,97230.06
2023-03-17T16:47:50.952Z,97229.19
2023-03-17T16:50:21.508Z,97234.50
2023-03-17T16:52:49.573Z,97234.50
2023-03-17T16:55:17.971Z,97233.50
2023-03-17T16:57:46.509Z,97231.69
2023-03-17T17:00:16.650Z,97236.97
2023-03-17T17:02:45.455Z,97239.53
2023-03-17T17:05:17.248Z,97242.22
2023-03-17T17:07:47.924Z,97241.16
2023-03-17T17:10:17.911Z,97250.97
2023-03-17T17:12:46.015Z,97249.97
2023-03-17T17:15:15.339Z,97250.84
2023-03-17T17:17:45.063Z,97252.56
2023-03-17T17:20:16.155Z,97248.03
2023-03-17T17:22:44.258Z,97254.28
2023-03-17T17:25:13.757Z,97247.09
2023-03-17T17:27:42.516Z,97250.63
2023-03-17T17:30:12.355Z,97248.69
2023-03-17T17:32:40.551Z,97256.75
2023-03-17T17:35:09.371Z,97247.75
2023-03-17T17:37:37.454Z,97252.13
2023-03-17T17:40:07.578Z,97247.75
2023-03-17T17:42:37.071Z,97248.50
2023-03-17T17:45:05.823Z,97256.56
2023-03-17T17:47:33.912Z,97249.38
2023-03-17T17:50:02.100Z,97259.13
2023-03-17T17:52:30.221Z,97254.63
2023-03-17T17:54:58.387Z,97262.69
2023-03-17T17:57:26.433Z,97261.72
2023-03-17T17:59:55.956Z,97261.72
2023-03-17T18:02:24.194Z,97266.13
2023-03-17T18:04:53.011Z,97262.47
2023-03-17T18:07:21.720Z,97269.59
2023-03-17T18:09:49.867Z,97259.69
2023-03-17T18:12:18.112Z,97273.03
2023-03-17T18:14:46.250Z,97264.97
2023-03-17T18:17:21.584Z,97271.22
2023-03-17T18:19:50.062Z,97271.09
2023-03-17T18:22:18.157Z,97276.47
2023-03-17T18:24:46.512Z,97274.66
2023-03-17T18:27:14.663Z,97275.50
2023-03-17T18:29:43.433Z,97282.59
2023-03-17T18:32:11.843Z,97276.25
2023-03-17T18:34:43.485Z,97279.81
2023-03-17T18:37:12.442Z,97271.75
2023-03-17T18:39:40.945Z,97270.03
2023-03-17T18:42:09.444Z,97268.19
2023-03-17T18:44:37.582Z,97269.91
2023-03-17T18:47:05.818Z,97273.47
2023-03-17T18:49:33.984Z,97271.53
2023-03-17T18:52:03.452Z,97266.16
2023-03-17T18:54:31.704Z,97272.28
2023-03-17T18:56:59.880Z,97267.75
2023-03-17T18:59:28.194Z,97270.38
2023-03-17T19:01:56.775Z,97266.69
2023-03-17T19:04:24.926Z,97272.06
2023-03-17T19:06:53.077Z,97263.13
2023-03-17T19:09:22.858Z,97265.75
2023-03-17T19:11:51.350Z,97263.06
2023-03-17T19:14:19.464Z,97264.75
2023-03-17T19:16:47.788Z,97261.19
2023-03-17T19:19:15.896Z,97255.81
2023-03-17T19:21:43.956Z,97255.00
2023-03-17T19:24:12.385Z,97258.44
2023-03-17T19:26:41.866Z,97257.44
2023-03-17T19:29:10.300Z,97262.81
2023-03-17T19:31:41.491Z,97259.28
2023-03-17T19:34:09.984Z,97258.44
2023-03-17T19:36:38.587Z,97261.97
2023-03-17T19:39:06.735Z,97265.50
2023-03-17T19:41:34.948Z,97268.22
2023-03-17T19:44:06.637Z,97267.25
2023-03-17T19:46:34.928Z,97268.22
2023-03-17T19:49:03.013Z,97265.50
2023-03-17T19:51:31.177Z,97260.13
2023-03-17T19:53:59.280Z,97258.31
2023-03-17T19:56:28.005Z,97259.28
2023-03-17T19:58:56.333Z,97259.28
2023-03-17T20:01:25.869Z,97260.13
2023-03-17T20:03:54.075Z,97261.97
2023-03-17T20:06:22.519Z,97253.91
2023-03-17T20:08:50.703Z,97252.06
2023-03-17T20:11:19.407Z,97260.13
2023-03-17T20:13:47.632Z,97257.44
2023-03-17T20:16:16.586Z,97257.44
2023-03-17T20:18:46.152Z,97256.59
2023-03-17T20:21:14.300Z,97253.91
2023-03-17T20:23:42.510Z,97255.63
2023-03-17T20:26:10.703Z,97246.69
2023-03-17T20:28:38.786Z,97244.88
2023-03-17T20:31:08.078Z,97246.59
2023-03-17T20:33:36.402Z,97246.59
2023-03-17T20:36:06.308Z,97247.44
2023-03-17T20:38:36.999Z,97246.59
2023-03-17T20:41:09.655Z,97236.69
2023-03-17T20:43:38.348Z,97238.50
2023-03-17T20:46:08.800Z,97230.44
2023-03-17T20:48:37.417Z,97230.44
2023-03-17T20:51:07.231Z,97233.03
2023-03-17T20:53:36.264Z,97222.28
2023-03-17T20:56:04.872Z,97224.97
2023-03-17T20:58:33.006Z,97229.50
2023-03-17T21:01:01.937Z,97216.91
2023-03-17T21:03:30.019Z,97216.91
2023-03-17T21:05:58.153Z,97220.44
2023-03-17T21:08:27.720Z,97221.19
2023-03-17T21:10:55.818Z,97218.63
2023-03-17T21:13:23.884Z,97214.97
2023-03-17T21:15:52.043Z,97215.81
2023-03-17T21:18:20.180Z,97214.97
2023-03-17T21:20:48.313Z,97213.13
2023-03-17T21:23:16.396Z,97205.94
2023-03-17T21:25:45.926Z,97199.69
2023-03-17T21:28:15.105Z,97206.81
2023-03-17T21:30:43.756Z,97211.31
2023-03-17T21:33:11.950Z,97205.06
2023-03-17T21:35:40.089Z,97205.06
2023-03-17T21:38:08.192Z,97199.69
2023-03-17T21:40:36.391Z,97199.69
2023-03-17T21:43:05.901Z,97200.56
2023-03-17T21:45:34.182Z,97199.69
2023-03-17T21:48:02.341Z,97200.69
2023-03-17T21:50:30.821Z,97195.31
2023-03-17T21:52:58.984Z,97186.38
2023-03-17T21:55:27.235Z,97198.00
2023-03-17T21:57:55.760Z,97200.69
2023-03-17T22:00:27.202Z,97201.63
2023-03-17T22:02:57.239Z,97189.16
2023-03-17T22:05:25.379Z,97194.56
2023-03-17T22:07:53.464Z,97189.16
2023-03-17T22:10:21.700Z,97184.63
2023-03-17T22:12:49.821Z,97183.03
2023-03-17T22:15:19.811Z,97184.75
2023-03-17T22:17:49.277Z,97181.22
2023-03-17T22:20:17.762Z,97182.94
2023-03-17T22:22:45.992Z,97175.84
2023-03-17T22:25:14.120Z,97179.47
2023-03-17T22:27:42.249Z,97178.63
2023-03-17T22:30:12.526Z,97172.41
2023-03-17T22:32:41.097Z,97174.22
2023-03-17T22:35:11.254Z,97172.50
2023-03-17T22:37:39.320Z,97163.59
2023-03-17T22:40:10.232Z,97160.03
2023-03-17T22:42:38.746Z,97161.84
2023-03-17T22:45:08.592Z,97155.72
2023-03-17T22:47:36.656Z,97154.84
2023-03-17T22:50:05.128Z,97157.66
2023-03-17T22:52:34.664Z,97154.09
2023-03-17T22:55:02.731Z,97160.47
2023-03-17T22:57:31.000Z,97160.47
2023-03-17T22:59:59.293Z,97156.91
2023-03-17T23:02:27.480Z,97156.16
2023-03-17T23:04:55.595Z,97157.13
2023-03-17T23:07:23.744Z,97163.34
2023-03-17T23:09:53.188Z,97155.41
2023-03-17T23:12:24.561Z,97151.00
2023-03-17T23:14:53.147Z,97147.47
2023-03-17T23:17:21.321Z,97151.97
2023-03-17T23:19:49.416Z,97145.72
2023-03-17T23:22:17.573Z,97146.69
2023-03-17T23:24:46.365Z,97152.09
2023-03-17T23:27:15.907Z,97147.66
2023-03-17T23:29:44.642Z,97144.13
2023-03-17T23:32:13.897Z,97145.94
2023-03-17T23:34:42.063Z,97150.47
2023-03-17T23:37:10.172Z,97155.94
2023-03-17T23:39:38.264Z,97155.09
2023-03-17T23:42:06.592Z,97153.25
2023-03-17T23:44:36.172Z,97151.53
2023-03-17T23:47:04.410Z,97148.94
2023-03-17T23:49:32.516Z,97152.50
2023-03-17T23:52:00.720Z,97154.44
2023-03-17T23:54:29.052Z,97149.94
2023-03-17T23:56:57.275Z,97151.75
2023-03-17T23:59:25.588Z,97145.50
